Latest Coastal Weather Observations for Ulladulla

IDN60701

Issued at 9:45 am EDT Friday 21 November 2014 (issued every 10 minutes, with the page automatically refreshed every 10 minutes)

About coastal observations | Map of coastal stations | Coastal observations for NSW | Marine services | Other Formats
Station Details ID: 069138 Name: ULLADULLA AWS Lat: -35.36 Lon: 150.48 Height: 35.7 m
Data from the previous 72 hours. | See also: Recent months at Ulladulla
Date/Time
EDT
Temp

°C
Wind Pressure Rain
since 9am
mm
Weather Cloud Vis
km
Sea
Height
m
Swell
Dir
 
Speed
knots
Gust
knots
hPa Trend Height
m
Period
s
Dir
21/09:30am 22.3 NNE 3 6 1006.2 - 0.0 - - - - - - -
21/09:00am 21.6 NNE 4 5 1006.4 - 0.0 - - - - - - -
21/08:30am 21.2 N 4 5 1006.1 - 0.0 - - - - - - -
21/08:00am 22.1 SSW 1 3 1006.4 - 0.0 - - - - - - -
21/07:30am 21.4 SSW 2 4 1006.5 - 0.0 - - - - - - -
21/07:00am 20.5 SSW 3 4 1006.4 - 0.0 - - - - - - -
21/06:30am 19.0 SSW 3 5 1006.7 - 0.0 - - - - - - -
21/06:00am 19.5 SSW 3 5 1006.5 - 0.0 - - - - - - -
21/05:30am 20.1 SW 6 9 1006.3 - 0.0 - - - - - - -
21/05:00am 20.5 SSW 9 13 1006.1 - 0.0 - - - - - - -
21/04:30am 20.7 SSW 10 15 1006.0 - 0.0 - - - - - - -
21/04:00am 20.5 SSW 11 16 1006.0 - 0.0 - - - - - - -
21/03:30am 21.0 SSW 13 20 1006.4 - 0.0 - - - - - - -
21/03:00am 20.6 SSW 14 20 1006.0 - 0.0 - - - - - - -
21/02:30am 20.1 SSW 15 21 1005.9 - 0.0 - - - - - - -
21/02:00am 20.1 SSW 14 23 1005.6 - 0.0 - - - - - - -
21/01:55am 20.2 SSW 15 21 1005.5 - 0.0 - - - - - - -
21/01:30am 21.1 N 3 5 1004.6 - 0.0 - - - - - - -
21/01:00am 21.0 N 3 6 1004.8 - 0.0 - - - - - - -
21/12:30am 21.4 N 4 7 1004.9 - 0.0 - - - - - - -
21/12:00am 21.2 N 5 7 1005.3 - 0.0 - - - - - - -
 
Date/Time
EDT
Temp

°C
Wind Pressure Rain
since 9am
mm
Weather Cloud Vis
km
Sea
Height
m
Swell
Dir
 
Speed
knots
Gust
knots
hPa Trend Height
m
Period
s
Dir
20/11:30pm 21.3 N 4 6 1005.7 - 0.0 - - - - - - -
20/11:00pm 21.2 N 4 8 1006.1 - 0.0 - - - - - - -
20/10:30pm 21.5 N 5 7 1006.4 - 0.0 - - - - - - -
20/10:00pm 21.5 N 6 9 1006.7 - 0.0 - - - - - - -
20/09:30pm 21.4 N 4 7 1006.9 - 0.0 - - - - - - -
20/09:00pm 22.0 N 5 8 1006.7 - 0.0 - - - - - - -
20/08:30pm 21.6 N 3 6 1006.6 - 0.0 - - - - - - -
20/08:00pm 21.8 N 4 7 1006.6 - 0.0 - - - - - - -
20/07:30pm 22.2 N 5 8 1006.3 - 0.0 - - - - - - -
20/07:00pm 21.7 N 7 9 1006.1 - 0.0 - - - - - - -
20/06:30pm 22.2 N 3 6 1005.8 - 0.0 - - - - - - -
20/06:00pm 22.8 NNE 8 15 1005.7 - 0.0 - - - - - - -
20/05:30pm 23.3 NNE 6 9 1005.9 - 0.0 - - - - - - -
20/05:00pm 23.1 NNE 8 15 1005.8 - 0.0 - - - - - - -
20/04:30pm 23.1 NNE 12 19 1005.9 - 0.0 - - - - - - -
20/04:00pm 23.2 NNE 4 10 1006.4 - 0.0 - - - - - - -
20/03:30pm 23.3 NNE 7 10 1006.8 - 0.0 - - - - - - -
20/03:00pm 23.4 NNE 8 12 1007.4 - 0.0 - - - - - - -
20/02:30pm 22.5 NNE 5 9 1007.7 - 0.0 - - - - - - -
20/02:00pm 22.6 N 4 6 1008.0 - 0.0 - - - - - - -
20/01:30pm 22.2 N 6 9 1008.4 - 0.0 - - - - - - -
20/01:00pm 23.6 N 4 9 1009.1 - 0.0 - - - - - - -
20/12:30pm 23.7 NNE 6 13 1009.5 - 0.0 - - - - - - -
20/12:00pm 23.5 NE 6 11 1009.9 - 0.0 - - - - - - -
20/11:30am 23.9 NNE 6 10 1010.7 - 0.0 - - - - - - -
20/11:00am 22.7 NNE 6 8 1010.9 - 0.0 - - - - - - -
20/10:30am 21.7 NNE 4 6 1011.4 - 0.0 - - - - - - -
20/10:00am 21.7 N 5 7 1012.0 - 0.0 - - - - - - -
20/09:30am 21.3 N 5 7 1012.4 - 0.0 - - - - - - -
20/09:00am 20.4 N 4 5 1012.8 - 0.0 - - - - - - -
20/08:30am 18.9 N 3 4 1012.8 - 0.0 - - - - - - -
20/08:00am 18.2 N 4 6 1012.9 - 0.0 - - - - - - -
20/07:30am 18.1 N 3 4 1012.7 - 0.0 - - - - - - -
20/07:00am 16.9 N 4 5 1012.7 - 0.0 - - - - - - -
20/06:30am 15.9 N 4 5 1012.6 - 0.0 - - - - - - -
20/06:00am 15.2 N 4 5 1012.7 - 0.0 - - - - - - -
20/05:30am 15.5 N 4 5 1012.7 - 0.0 - - - - - - -
20/05:00am 15.5 NNW 3 4 1012.8 - 0.0 - - - - - - -
20/04:30am 16.1 N 5 6 1012.7 - 0.0 - - - - - - -
20/04:00am 16.0 N 4 5 1012.9 - 0.0 - - - - - - -
20/03:30am 16.2 N 4 6 1012.9 - 0.0 - - - - - - -
20/03:00am 16.6 N 5 7 1013.3 - 0.0 - - - - - - -
20/02:30am 16.4 N 3 5 1013.7 - 0.0 - - - - - - -
20/02:00am 17.1 N 7 10 1014.0 - 0.0 - - - - - - -
20/01:30am 17.5 N 8 13 1014.2 - 0.0 - - - - - - -
20/01:00am 17.6 N 7 12 1014.5 - 0.0 - - - - - - -
20/12:30am 17.7 N 6 11 1014.6 - 0.0 - - - - - - -
20/12:00am 18.0 N 9 13 1015.0 - 0.0 - - - - - - -
 
Date/Time
EDT
Temp

°C
Wind Pressure Rain
since 9am
mm
Weather Cloud Vis
km
Sea
Height
m
Swell
Dir
 
Speed
knots
Gust
knots
hPa Trend Height
m
Period
s
Dir
19/11:30pm 17.9 N 8 11 1015.2 - 0.0 - - - - - - -
19/11:00pm 17.9 N 7 11 1015.4 - 0.0 - - - - - - -
19/10:30pm 18.1 N 8 11 1015.3 - 0.0 - - - - - - -
19/10:00pm 18.4 N 8 11 1015.6 - 0.0 - - - - - - -
19/09:30pm 18.7 N 10 14 1015.6 - 0.0 - - - - - - -
19/09:00pm 18.9 N 11 17 1015.4 - 0.0 - - - - - - -
19/08:30pm 18.9 N 6 11 1015.4 - 0.0 - - - - - - -
19/08:00pm 19.0 NNE 9 15 1015.4 - 0.0 - - - - - - -
19/07:30pm 19.2 NNE 8 13 1015.4 - 0.0 - - - - - - -
19/07:00pm 19.3 NE 9 16 1015.5 - 0.0 - - - - - - -
19/06:30pm 19.4 NE 11 19 1015.4 - 0.0 - - - - - - -
19/06:00pm 19.4 NE 14 22 1015.4 - 0.0 - - - - - - -
19/05:30pm 19.4 NE 14 20 1015.4 - 0.0 - - - - - - -
19/05:00pm 19.5 NE 15 22 1015.8 - 0.0 - - - - - - -
19/04:30pm 20.2 NE 11 19 1016.2 - 0.0 - - - - - - -
19/04:00pm 19.6 NNE 16 23 1016.5 - 0.0 - - - - - - -
19/03:30pm 19.9 NNE 14 21 1017.0 - 0.0 - - - - - - -
19/03:00pm 20.0 NE 13 21 1017.6 - 0.0 - - - - - - -
19/02:30pm 20.0 NE 12 19 1018.1 - 0.0 - - - - - - -
19/02:00pm 20.1 NE 11 18 1018.7 - 0.0 - - - - - - -
19/01:30pm 20.0 NE 12 19 1019.0 - 0.0 - - - - - - -
19/01:00pm 20.0 NE 10 17 1019.3 - 0.0 - - - - - - -
19/12:30pm 20.0 NE 10 16 1020.0 - 0.0 - - - - - - -
19/12:00pm 20.6 NE 8 13 1020.4 - 0.0 - - - - - - -
19/11:30am 19.6 NE 9 14 1020.7 - 0.0 - - - - - - -
19/11:00am 19.2 NE 8 12 1021.0 - 0.0 - - - - - - -
19/10:30am 18.5 NNE 6 10 1021.3 - 0.0 - - - - - - -
19/10:00am 18.8 NNE 6 9 1021.3 - 0.0 - - - - - - -
19/09:30am 18.4 NNE 5 8 1021.6 - 0.0 - - - - - - -
19/09:00am 19.2 N 4 7 1021.7 - 0.0 - - - - - - -
19/08:30am 18.5 N 6 9 1021.6 - 0.0 - - - - - - -
19/08:00am 18.2 N 6 8 1021.4 - 0.0 - - - - - - -
19/07:30am 17.6 NNW 4 5 1021.3 - 0.0 - - - - - - -
19/07:00am 16.7 NW 2 4 1021.2 - 0.0 - - - - - - -
19/06:30am 15.8 WNW 2 3 1021.0 - 0.0 - - - - - - -
19/06:00am 15.7 WNW 2 2 1021.0 - 0.0 - - - - - - -
19/05:30am 16.4 WNW 2 3 1020.8 - 0.0 - - - - - - -
19/05:00am 16.5 WNW 1 2 1020.7 - 0.0 - - - - - - -
19/04:30am 16.6 WNW 2 3 1020.7 - 0.0 - - - - - - -
19/04:00am 16.4 WNW 1 2 1020.7 - 0.0 - - - - - - -
19/03:30am 16.4 WNW 1 3 1020.6 - 0.0 - - - - - - -
19/03:00am 16.7 WNW 1 2 1020.7 - 0.0 - - - - - - -
19/02:30am 16.9 WNW 2 4 1020.9 - 0.0 - - - - - - -
19/02:00am 17.4 NNW 3 6 1021.0 - 0.0 - - - - - - -
19/01:30am 17.5 ENE 3 6 1021.1 - 0.0 - - - - - - -
19/01:00am 17.5 E 3 6 1021.5 - 0.0 - - - - - - -
19/12:30am 17.5 ENE 3 5 1022.0 - 0.0 - - - - - - -
19/12:00am 17.6 E 3 6 1022.2 - 0.0 - - - - - - -
 
Date/Time
EDT
Temp

°C
Wind Pressure Rain
since 9am
mm
Weather Cloud Vis
km
Sea
Height
m
Swell
Dir
 
Speed
knots
Gust
knots
hPa Trend Height
m
Period
s
Dir
18/11:30pm 17.6 E 3 6 1022.3 - 0.0 - - - - - - -
18/11:00pm 17.6 E 4 7 1022.1 - 0.0 - - - - - - -
18/10:30pm 17.6 E 4 7 1022.1 - 0.0 - - - - - - -
18/10:00pm 17.6 E 4 7 1021.9 - 0.0 - - - - - - -
18/09:30pm 17.4 ESE 4 7 1021.6 - 0.0 - - - - - - -
18/09:00pm 17.4 ESE 5 9 1021.3 - 0.0 - - - - - - -
18/08:30pm 17.7 ESE 6 10 1020.8 - 0.0 - - - - - - -
18/08:00pm 17.7 ESE 5 10 1020.3 - 0.0 - - - - - - -
18/07:30pm 17.8 ESE 6 11 1019.6 - 0.0 - - - - - - -
18/07:00pm 17.9 ESE 6 11 1019.2 - 0.0 - - - - - - -
18/06:30pm 17.9 ESE 6 10 1018.6 - 0.0 - - - - - - -
18/06:00pm 18.1 ESE 4 7 1018.4 - 0.0 - - - - - - -
18/05:30pm 18.3 E 4 6 1018.1 - 0.0 - - - - - - -
18/05:00pm 18.5 E 4 8 1018.1 - 0.0 - - - - - - -
18/04:30pm 18.6 E 5 8 1017.6 - 0.0 - - - - - - -
18/04:00pm 18.7 E 5 8 1017.6 - 0.0 - - - - - - -
18/03:30pm 19.5 ESE 5 9 1017.6 - 0.0 - - - - - - -
18/03:00pm 20.1 ESE 6 11 1018.0 - 0.0 - - - - - - -
18/02:30pm 20.1 ESE 6 10 1018.2 - 0.0 - - - - - - -
18/02:00pm 20.3 SE 5 9 1018.5 - 0.0 - - - - - - -
18/01:30pm 20.4 SE 7 10 1018.8 - 0.0 - - - - - - -
18/01:00pm 20.0 SE 7 11 1018.7 - 0.0 - - - - - - -
18/12:30pm 20.4 SSE 8 11 1018.7 - 0.0 - - - - - - -
18/12:00pm 19.4 SSE 8 11 1019.0 - 0.0 - - - - - - -
18/11:30am 19.3 SSE 9 13 1018.9 - 0.0 - - - - - - -
18/11:00am 18.4 SSE 9 12 1018.9 - 0.0 - - - - - - -
18/10:30am 17.6 S 10 14 1018.8 - 0.0 - - - - - - -
18/10:00am 17.5 S 11 15 1018.7 - 0.0 - - - - - - -

Other Formats:

Comma delimited format used in spreadsheet applications
http://www.bom.gov.au/fwo/IDN60701/IDN60701.94938.axf

JavaScript Object Notation format (JSON) in row-major order
http://www.bom.gov.au/fwo/IDN60701/IDN60701.94938.json